Aeroporto :
LOGIN :

Iscrizione | Disclaimer

   EN    FR    IT 

 










Sommario :    VFR   VFR Marginale   IFR   IFR Intensivo   IFR Molto Intensivo
Visibilità : 
Base nubi : 
>= 8 km
>= 3000ft
5 / 8 km
1000 / 3000 ft
1500m / 5 km
500 / 1000 ft
800 / 1500m
200 / 500 ft
< 800m
< 200 ft
Simboli :   Temporali  Nebbia  Neve Forte  Precipitazioni Forti  Vento > 20 kt
SIGMETs :   Varie  Temporali  Ghiacco  Turbolenza  Onda orograficha  Ceneri Vulcaniche







- Altitudine del aeroporto : 885 ft
- Codice IATA : BAS
- Carte del aeroporto


LFSB - Bale-Mulhouse

ULTIMO METAR :
  • 231500Z 05004KT 020V120 CAVOK 20/01 Q1025 NOSIG

METARs OBSOLETI :
  • 231430Z 30005KT 260V340 CAVOK 20/00 Q1025 NOSIG
  • 231400Z 30006KT 250V360 CAVOK 20/01 Q1026 NOSIG
  • 231300Z 29006KT 230V350 CAVOK 19/M01 Q1026 NOSIG
  • 231230Z 33007KT 280V030 CAVOK 18/01 Q1027 NOSIG

TAF TAF LFSB
Valido dal 23 a 12 ore il 24 a 12 ore UTC


231100Z 2312/2412 34006KT CAVOK
TEMPO 2402/2408 3000 BR
PROB40 2403/2407 0300 FG VV///
Met : +33 3 89 90 31 11
Nessun NOTAM noto per questo aeroporto.



MetMap, La meteo Aeronautica in un colpo d'occhio ! - Copyright ORBIFLY Dicembre 2007 - Disclaimer

ORBIFLY MET'MAP TEAM :

Programmazione e sviluppo : Alexandra Zaïnal
Concezione e sviluppo : Baudouin d'Aumeries
Co-Programmazione e sviluppo : Marc-Olivier Méhu
Supporto tecnico e logistico : Manuel Goepfert
Aiuto per la traduzione : Arnaldo La Scala

Contatto : metmap@orbifly.com




FONTI E CREDITI :

   NOAA